createdAt,value
2023-04-12T00:02:41.814Z,9.68
2023-04-12T00:06:08.270Z,9.62
2023-04-12T00:09:31.353Z,9.59
2023-04-12T00:12:55.752Z,9.78
2023-04-12T00:16:38.752Z,10.05
2023-04-12T00:20:01.886Z,10.31
2023-04-12T00:23:24.994Z,10.09
2023-04-12T00:26:48.267Z,9.84
2023-04-12T00:30:11.455Z,9.82
2023-04-12T00:33:34.822Z,9.72
2023-04-12T00:36:58.074Z,9.53
2023-04-12T00:40:21.748Z,9.84
2023-04-12T00:43:44.606Z,9.89
2023-04-12T00:47:08.280Z,10.09
2023-04-12T00:50:31.254Z,9.91
2023-04-12T00:53:57.694Z,9.62
2023-04-12T00:57:14.190Z,9.55
2023-04-12T01:00:37.359Z,9.79
2023-04-12T01:04:03.950Z,9.88
2023-04-12T01:07:36.674Z,9.89
2023-04-12T01:11:03.545Z,9.20
2023-04-12T01:14:29.639Z,8.94
2023-04-12T01:17:57.521Z,9.13
2023-04-12T01:21:24.924Z,8.84
2023-04-12T01:24:55.399Z,8.97
2023-04-12T01:28:21.539Z,9.08
2023-04-12T01:31:49.263Z,9.14
2023-04-12T01:35:13.468Z,9.08
2023-04-12T01:38:36.339Z,8.36
2023-04-12T01:41:59.194Z,8.67
2023-04-12T01:45:22.400Z,8.43
2023-04-12T01:48:48.288Z,8.68
2023-04-12T01:52:12.891Z,8.48
2023-04-12T01:55:37.462Z,8.69
2023-04-12T01:59:00.620Z,8.53
2023-04-12T02:02:23.862Z,7.99
2023-04-12T02:05:47.433Z,8.14
2023-04-12T02:09:11.655Z,8.29
2023-04-12T02:12:34.469Z,8.07
2023-04-12T02:15:58.940Z,8.11
2023-04-12T02:19:21.853Z,8.40
2023-04-12T02:22:44.672Z,8.27
2023-04-12T02:26:07.854Z,8.55
2023-04-12T02:29:31.026Z,8.50
2023-04-12T02:32:55.621Z,8.38
2023-04-12T02:36:18.675Z,8.80
2023-04-12T02:39:43.506Z,8.43
2023-04-12T02:43:06.645Z,8.35
2023-04-12T02:46:29.920Z,8.29
2023-04-12T02:49:52.927Z,8.36
2023-04-12T02:53:16.259Z,8.22
2023-04-12T02:56:39.143Z,7.92
2023-04-12T03:00:06.839Z,8.23
2023-04-12T03:03:31.338Z,8.25
2023-04-12T03:06:54.295Z,8.43
2023-04-12T03:10:17.190Z,8.37
2023-04-12T03:13:39.919Z,7.99
2023-04-12T03:16:52.908Z,8.03
2023-04-12T03:20:16.626Z,8.02
2023-04-12T03:23:39.618Z,8.44
2023-04-12T03:27:02.994Z,8.64
2023-04-12T03:30:25.955Z,9.09
2023-04-12T03:33:49.337Z,8.74
2023-04-12T03:37:15.373Z,9.57
2023-04-12T03:40:38.265Z,10.21
2023-04-12T03:44:01.133Z,10.37
2023-04-12T03:47:24.168Z,10.70
2023-04-12T03:50:47.784Z,10.90
2023-04-12T03:54:11.226Z,11.17
2023-04-12T03:57:34.356Z,11.34
2023-04-12T04:00:57.529Z,11.37
2023-04-12T04:04:20.905Z,11.22
2023-04-12T04:07:43.966Z,10.84
2023-04-12T04:11:08.905Z,10.18
2023-04-12T04:14:35.792Z,10.48
2023-04-12T04:17:58.670Z,9.92
2023-04-12T04:21:22.017Z,10.32
2023-04-12T04:24:44.782Z,10.74
2023-04-12T04:28:07.681Z,10.99
2023-04-12T04:31:33.867Z,11.22
2023-04-12T04:34:59.208Z,11.39
2023-04-12T04:38:24.951Z,11.33
2023-04-12T04:41:53.841Z,11.07
2023-04-12T04:45:21.222Z,10.90
2023-04-12T04:48:44.160Z,11.13
2023-04-12T04:52:08.089Z,10.84
2023-04-12T04:55:32.579Z,10.89
2023-04-12T04:58:57.060Z,10.75
2023-04-12T05:02:20.641Z,10.72
2023-04-12T05:05:43.578Z,10.78
2023-04-12T05:09:06.655Z,11.08
2023-04-12T05:12:30.678Z,10.93
2023-04-12T05:15:53.727Z,11.33
2023-04-12T05:19:16.641Z,11.45
2023-04-12T05:22:39.397Z,11.21
2023-04-12T05:26:02.385Z,10.92
2023-04-12T05:29:25.205Z,11.28
2023-04-12T05:32:48.479Z,11.34
2023-04-12T05:36:11.665Z,11.24
2023-04-12T05:39:34.462Z,11.20
2023-04-12T05:42:57.367Z,11.01
2023-04-12T05:46:20.953Z,11.41
2023-04-12T05:49:44.843Z,11.39
2023-04-12T05:53:01.140Z,11.02
2023-04-12T05:56:24.064Z,11.04
2023-04-12T05:59:46.965Z,11.33
2023-04-12T06:03:10.901Z,11.54
2023-04-12T06:06:33.981Z,11.52
2023-04-12T06:09:56.947Z,11.83
2023-04-12T06:13:20.382Z,11.73
2023-04-12T06:16:43.347Z,11.65
2023-04-12T06:20:08.566Z,11.24
2023-04-12T06:23:31.449Z,11.40
2023-04-12T06:26:55.195Z,11.40
2023-04-12T06:30:12.344Z,11.92
2023-04-12T06:33:36.111Z,12.28
2023-04-12T06:36:59.277Z,11.72
2023-04-12T06:40:22.135Z,11.41
2023-04-12T06:43:46.433Z,11.26
2023-04-12T06:47:09.594Z,11.52
2023-04-12T06:50:32.872Z,11.93
2023-04-12T06:53:57.039Z,12.19
2023-04-12T06:57:19.986Z,12.95
2023-04-12T07:00:43.008Z,13.11
2023-04-12T07:04:05.855Z,13.31
2023-04-12T07:07:29.019Z,13.17
2023-04-12T07:10:53.749Z,13.69
2023-04-12T07:14:17.032Z,13.79
2023-04-12T07:17:40.274Z,14.04
2023-04-12T07:21:03.456Z,13.48
2023-04-12T07:24:26.485Z,12.70
2023-04-12T07:27:51.799Z,13.33
2023-04-12T07:31:15.015Z,14.01
2023-04-12T07:34:38.844Z,14.76
2023-04-12T07:38:01.913Z,14.47
2023-04-12T07:41:26.505Z,14.05
2023-04-12T07:44:48.269Z,13.49
2023-04-12T07:48:11.759Z,14.27
2023-04-12T07:51:34.669Z,15.36
2023-04-12T07:54:58.878Z,15.00
2023-04-12T07:58:01.464Z,14.64
2023-04-12T08:01:24.261Z,14.83
2023-04-12T08:04:47.263Z,15.81
2023-04-12T08:08:10.451Z,16.19
2023-04-12T08:11:22.315Z,15.41
2023-04-12T08:14:45.275Z,15.67
2023-04-12T08:18:08.124Z,16.52
2023-04-12T08:21:30.158Z,16.09
2023-04-12T08:24:53.184Z,15.56
2023-04-12T08:28:16.491Z,15.41
2023-04-12T08:31:39.689Z,16.28
2023-04-12T08:35:02.675Z,16.17
2023-04-12T08:38:37.241Z,16.03
2023-04-12T08:42:05.949Z,16.12
2023-04-12T08:45:25.371Z,16.99
2023-04-12T08:48:42.712Z,17.78
2023-04-12T08:52:06.760Z,17.72
2023-04-12T08:55:12.316Z,17.01
2023-04-12T08:58:25.803Z,16.85
2023-04-12T09:01:49.078Z,17.70
2023-04-12T09:04:53.089Z,17.55
2023-04-12T09:07:58.755Z,17.13
2023-04-12T09:11:23.766Z,16.76
2023-04-12T09:14:46.657Z,16.82
2023-04-12T09:18:10.801Z,17.91
2023-04-12T09:21:13.602Z,18.52
2023-04-12T09:24:16.415Z,17.94
2023-04-12T09:27:44.888Z,17.23
2023-04-12T09:31:15.537Z,16.62
2023-04-12T09:34:38.893Z,16.10
2023-04-12T09:38:07.345Z,15.72
2023-04-12T09:41:31.341Z,15.49
2023-04-12T09:44:56.056Z,15.35
2023-04-12T09:48:20.166Z,15.22
2023-04-12T09:51:50.881Z,15.10
2023-04-12T09:55:14.111Z,15.04
2023-04-12T09:58:38.375Z,15.02
2023-04-12T10:02:03.953Z,15.10
2023-04-12T10:05:27.921Z,15.83
2023-04-12T10:08:51.319Z,17.41
2023-04-12T10:11:58.696Z,17.71
2023-04-12T10:15:21.824Z,17.29
2023-04-12T10:18:45.094Z,17.11
2023-04-12T10:22:08.131Z,16.97
2023-04-12T10:25:31.362Z,16.95
2023-04-12T10:28:47.088Z,16.93
2023-04-12T10:32:20.615Z,16.91
2023-04-12T10:35:51.005Z,17.00
2023-04-12T10:39:09.195Z,17.10
2023-04-12T10:42:32.268Z,17.22
2023-04-12T10:45:55.117Z,17.25
2023-04-12T10:49:18.446Z,17.07
2023-04-12T10:52:42.116Z,16.82
2023-04-12T10:56:30.759Z,16.47
2023-04-12T10:59:56.597Z,15.91
2023-04-12T11:03:20.015Z,15.47
2023-04-12T11:06:57.499Z,15.02
2023-04-12T11:10:23.739Z,14.50
2023-04-12T11:13:46.765Z,14.20
2023-04-12T11:17:23.530Z,14.04
2023-04-12T11:20:46.963Z,13.95
2023-04-12T11:24:01.245Z,13.93
2023-04-12T11:27:26.248Z,13.89
2023-04-12T11:30:48.878Z,13.95
2023-04-12T11:34:06.185Z,14.05
2023-04-12T11:37:30.231Z,14.27
2023-04-12T11:40:53.944Z,14.55
2023-04-12T11:44:18.360Z,14.80
2023-04-12T11:47:51.500Z,15.01
2023-04-12T11:51:07.702Z,15.14
2023-04-12T11:54:34.688Z,15.40
2023-04-12T11:57:53.053Z,15.54
2023-04-12T12:01:16.769Z,15.73
2023-04-12T12:04:24.922Z,15.93
2023-04-12T12:07:28.108Z,15.95
2023-04-12T12:11:00.010Z,16.05
2023-04-12T12:14:28.454Z,16.23
2023-04-12T12:17:35.800Z,16.41
2023-04-12T12:20:58.708Z,16.41
2023-04-12T12:24:14.109Z,16.40
2023-04-12T12:27:34.444Z,16.43
2023-04-12T12:30:57.488Z,16.59
2023-04-12T12:34:01.157Z,16.68
2023-04-12T12:37:25.257Z,16.88
2023-04-12T12:40:31.812Z,16.92
2023-04-12T12:43:34.498Z,16.67
2023-04-12T12:47:06.584Z,16.52
2023-04-12T12:50:17.323Z,16.45
2023-04-12T12:53:29.297Z,16.41
2023-04-12T12:56:52.255Z,16.38
2023-04-12T12:59:59.847Z,16.42
2023-04-12T13:03:03.238Z,16.63
2023-04-12T13:06:27.648Z,16.93
2023-04-12T13:09:50.954Z,17.11
2023-04-12T13:13:02.961Z,17.29
2023-04-12T13:16:12.204Z,17.32
2023-04-12T13:19:17.500Z,17.25
2023-04-12T13:22:33.954Z,17.29
2023-04-12T13:25:55.495Z,17.34
2023-04-12T13:28:58.556Z,17.49
2023-04-12T13:32:14.905Z,17.67
2023-04-12T13:35:20.668Z,17.72
2023-04-12T13:38:43.546Z,17.54
2023-04-12T13:42:01.361Z,17.24
2023-04-12T13:45:18.039Z,17.08
2023-04-12T13:48:31.817Z,17.16
2023-04-12T13:51:55.049Z,17.30
2023-04-12T13:55:09.527Z,17.48
2023-04-12T13:58:32.585Z,17.72
2023-04-12T14:01:55.953Z,18.08
2023-04-12T14:05:19.348Z,18.24
2023-04-12T14:08:42.141Z,18.37
2023-04-12T14:12:05.136Z,18.59
2023-04-12T14:15:28.080Z,18.76
2023-04-12T14:18:43.684Z,18.87
2023-04-12T14:22:06.549Z,18.94
2023-04-12T14:25:29.386Z,18.96
2023-04-12T14:28:42.538Z,19.02
2023-04-12T14:32:05.540Z,19.14
2023-04-12T14:35:09.097Z,19.16
2023-04-12T14:38:14.659Z,19.28
2023-04-12T14:41:37.627Z,19.52
2023-04-12T14:45:00.796Z,19.61
2023-04-12T14:48:23.707Z,19.66
2023-04-12T14:51:37.378Z,19.68
2023-04-12T14:55:01.129Z,19.48
2023-04-12T14:58:07.019Z,19.34
2023-04-12T15:01:29.971Z,19.24
2023-04-12T15:04:53.069Z,19.11
2023-04-12T15:08:16.185Z,19.00
2023-04-12T15:11:45.440Z,18.97
2023-04-12T15:15:09.493Z,18.97
2023-04-12T15:18:32.473Z,18.83
2023-04-12T15:21:55.404Z,18.66
2023-04-12T15:25:18.354Z,18.68
2023-04-12T15:28:41.623Z,18.85
2023-04-12T15:32:04.669Z,19.22
2023-04-12T15:35:27.778Z,19.53
2023-04-12T15:38:50.744Z,19.67
2023-04-12T15:42:05.097Z,19.87
2023-04-12T15:45:28.113Z,20.23
2023-04-12T15:48:50.971Z,20.70
2023-04-12T15:52:13.871Z,21.21
2023-04-12T15:55:29.212Z,21.55
2023-04-12T15:58:37.927Z,21.96
2023-04-12T16:01:43.572Z,22.41
2023-04-12T16:04:59.966Z,22.65
2023-04-12T16:08:23.186Z,22.54
2023-04-12T16:11:47.578Z,22.07
2023-04-12T16:14:55.859Z,21.66
2023-04-12T16:18:18.817Z,21.36
2023-04-12T16:21:43.955Z,21.33
2023-04-12T16:25:07.990Z,21.35
2023-04-12T16:28:31.021Z,21.32
2023-04-12T16:31:54.129Z,21.42
2023-04-12T16:35:08.692Z,21.26
2023-04-12T16:38:31.970Z,20.48
2023-04-12T16:41:55.298Z,19.48
2023-04-12T16:45:08.999Z,18.46
2023-04-12T16:48:15.089Z,17.58
2023-04-12T16:51:38.230Z,17.00
2023-04-12T16:54:53.780Z,16.67
2023-04-12T16:58:17.598Z,16.60
2023-04-12T17:01:40.910Z,16.28
2023-04-12T17:05:04.203Z,15.78
2023-04-12T17:08:27.167Z,15.26
2023-04-12T17:11:50.318Z,14.79
2023-04-12T17:15:03.807Z,14.42
2023-04-12T17:18:09.912Z,14.12
2023-04-12T17:21:40.216Z,13.81
2023-04-12T17:25:04.361Z,13.50
2023-04-12T17:28:27.123Z,13.21
2023-04-12T17:31:49.708Z,12.95
2023-04-12T17:35:15.546Z,12.70
2023-04-12T17:38:28.462Z,12.49
2023-04-12T17:41:44.048Z,12.31
2023-04-12T17:44:56.998Z,12.14
2023-04-12T17:48:19.983Z,11.97
2023-04-12T17:51:42.935Z,11.82
2023-04-12T17:54:56.709Z,11.70
2023-04-12T17:58:18.327Z,11.60
2023-04-12T18:01:41.427Z,11.52
2023-04-12T18:05:04.415Z,11.45
2023-04-12T18:08:09.363Z,11.39
2023-04-12T18:11:33.684Z,11.32
2023-04-12T18:14:45.569Z,11.26
2023-04-12T18:18:01.135Z,11.18
2023-04-12T18:21:20.555Z,11.11
2023-04-12T18:24:43.506Z,11.02
2023-04-12T18:28:09.515Z,10.95
2023-04-12T18:31:32.625Z,10.86
2023-04-12T18:34:55.563Z,10.79
2023-04-12T18:38:18.853Z,10.72
2023-04-12T18:41:42.023Z,10.65
2023-04-12T18:44:50.673Z,10.61
2023-04-12T18:47:53.609Z,10.54
2023-04-12T18:51:06.704Z,10.45
2023-04-12T18:54:20.512Z,10.34
2023-04-12T18:57:33.564Z,10.24
2023-04-12T19:00:56.839Z,10.15
2023-04-12T19:04:19.884Z,10.06
2023-04-12T19:07:35.625Z,9.98
2023-04-12T19:10:58.535Z,9.89
2023-04-12T19:14:11.311Z,9.81
2023-04-12T19:17:37.914Z,9.73
2023-04-12T19:21:01.488Z,9.66
2023-04-12T19:24:04.833Z,9.61
2023-04-12T19:27:28.126Z,9.54
2023-04-12T19:30:51.112Z,9.49
2023-04-12T19:34:17.455Z,9.44
2023-04-12T19:37:40.926Z,9.40
2023-04-12T19:41:02.449Z,9.36
2023-04-12T19:44:25.735Z,9.35
2023-04-12T19:47:43.911Z,9.35
2023-04-12T19:51:06.917Z,9.38
2023-04-12T19:54:23.033Z,9.40
2023-04-12T19:57:37.490Z,9.45
2023-04-12T20:01:01.576Z,9.50
2023-04-12T20:04:15.082Z,9.54
2023-04-12T20:07:29.293Z,9.59
2023-04-12T20:10:32.222Z,9.63
2023-04-12T20:13:39.237Z,9.65
2023-04-12T20:17:05.129Z,9.67
2023-04-12T20:20:28.049Z,9.68
2023-04-12T20:23:51.294Z,9.68
2023-04-12T20:27:08.081Z,9.66
2023-04-12T20:30:31.133Z,9.63
2023-04-12T20:33:54.168Z,9.58
2023-04-12T20:37:07.085Z,9.54
2023-04-12T20:40:30.077Z,9.49
2023-04-12T20:43:53.052Z,9.44
2023-04-12T20:47:17.459Z,9.38
2023-04-12T20:50:24.614Z,9.33
2023-04-12T20:53:27.312Z,9.29
2023-04-12T20:56:41.483Z,9.25
2023-04-12T21:00:12.171Z,9.23
2023-04-12T21:03:35.430Z,9.20
2023-04-12T21:06:38.428Z,9.20
2023-04-12T21:09:54.965Z,9.20
2023-04-12T21:13:21.068Z,9.21
2023-04-12T21:16:27.131Z,9.20
2023-04-12T21:19:50.498Z,9.22
2023-04-12T21:23:15.619Z,9.25
2023-04-12T21:26:39.645Z,9.27
2023-04-12T21:29:55.735Z,9.30
2023-04-12T21:33:12.057Z,9.31
2023-04-12T21:36:34.840Z,9.31
2023-04-12T21:39:56.436Z,9.29
2023-04-12T21:42:59.145Z,9.24
2023-04-12T21:46:26.425Z,9.19
2023-04-12T21:49:51.586Z,9.11
2023-04-12T21:53:14.345Z,9.02
2023-04-12T21:56:37.231Z,8.97
2023-04-12T22:00:00.278Z,9.76
2023-04-12T22:03:23.320Z,10.68
2023-04-12T22:06:36.192Z,10.24
2023-04-12T22:10:01.084Z,9.80
2023-04-12T22:50:25.032Z,9.88
2023-04-12T22:53:39.230Z,9.75
2023-04-12T22:57:02.064Z,10.81
2023-04-12T23:00:26.374Z,11.72
2023-04-12T23:03:49.205Z,11.13
2023-04-12T23:07:12.234Z,10.47
2023-04-12T23:20:22.172Z,11.43
2023-04-12T23:23:46.517Z,11.08
2023-04-12T23:27:08.045Z,10.41
2023-04-12T23:30:31.437Z,10.06
2023-04-12T23:33:43.460Z,10.92
2023-04-12T23:37:06.668Z,11.55
2023-04-12T23:40:29.881Z,10.86
2023-04-12T23:43:53.597Z,10.25
2023-04-12T23:47:16.441Z,10.16
2023-04-12T23:50:39.296Z,11.26
2023-04-12T23:54:02.235Z,11.44
2023-04-12T23:57:25.226Z,10.67
